Details From CYZY - Mackenzie
To CZMT - Masset
Flight Number -
Tags Novice Generated
Created
Modified
Stats Distance 321 nm / 595 km
Max Altitude 0 ft / 0 m
Waypoints 2
Social Downloads 25
Likes 1
Share VATSIM

Download

Looking for another format? Having issues loading an existing format? Contact us
Advertisement - Login to hide

Notes

Generated

Route

CYZY CZMT

ID Type Via Altitude Latitude Longitude Leg Dist Tot Dist Heading (true) Name
O CYZY APT - 0 ft / 0 m 55.31111˚ -123.13084˚ - 0 nm - -
O CZMT APT - 0 ft / 0 m 54.03042˚ -132.12440˚ 321 nm 321 nm 260° / 253° -

Altitude Profile

Advertisement - Login to hide

Weather


0- 5 10 15 20 25 30 35+ Temperature / ° C

Clouds and Precipitation
Forecast for 2018-05-20 18:00 UTC. Updated 40 minutes ago

Ground ~20,000 ft ~40,000 ft Winds

CYZY

Details ICAO CYZY (YZY)
Name MACKENZIE
Region Canada
Timezone America/Vancouver (UTC-7.0)
Stats Elevation 2,264 ft / 690 m (AMSL)
Location 55.304305° -123.132085°
Runways 1
Magnetic Variation 17.747° E

METAR

CYZY 201800Z AUTO 16012G19KT 9SM SCT080 SCT110 SCT130 17/09 A2983 RMK SLP109 DENSITY ALT 3100FT

Decode

TAF

TAF CYZY 201439Z 2015/2103 VRB03KT P6SM SCT060 BKN200 FM201900 18007KT P6SM BKN050 OVC070 TEMPO 2019/2101 4SM -RA BR OVC040 PROB40 2019/2101 3SM -TSRA BR OVC040CB RMK FCST BASED ON AUTO OBS. NXT FCST BY 201900Z

Decode

Departure Runways

ID Width Length Bearing (true) Bearing (mag) Surface Threshold Offset Overrun Length
16 100 ft / 30 m 4,994 ft / 1,522 m 185.95° 168.20° Asphalt 0 ft / 0 m 0 ft / 0 m
34 100 ft / 30 m 4,994 ft / 1,522 m 5.95° 348.20° Asphalt 0 ft / 0 m 0 ft / 0 m

CZMT

Details ICAO CZMT (ZMT)
Name MASSET
Region Canada
Timezone America/Vancouver (UTC-7.0)
Stats Elevation 25 ft / 8 m (AMSL)
Location 54.024807° -132.117645°
Runways 1
Magnetic Variation 18.089° E

METAR

CZMT 201800Z 14013KT 15SM SCT020 BKN050 OVC160 13/08 A2990 RMK SC3SC3AC2 SLP128

Decode

TAF

TAF CZMT 201410Z 2014/2024 15005KT P6SM SCT012 BKN050 TEMPO 2014/2017 BKN012 FM201700 15012KT P6SM SCT020 BKN050 TEMPO 2017/2024 P6SM -SHRA BKN020 RMK NXT FCST BY 201900Z

Decode

Destination Runways

ID Width Length Bearing (true) Bearing (mag) Surface Threshold Offset Overrun Length
13 98 ft / 30 m 5,017 ft / 1,529 m 144.74° 126.65° Asphalt 0 ft / 0 m 0 ft / 0 m
31 98 ft / 30 m 5,017 ft / 1,529 m 324.75° 306.66° Asphalt 0 ft / 0 m 0 ft / 0 m

Popular Alternatives